sensor_id;sensor_type;location;lat;lon;timestamp;temperature;humidity
35563;DHT22;21665;40.108;18.302;2023-04-15T00:02:19;10.10;99.90
35563;DHT22;21665;40.108;18.302;2023-04-15T00:04:46;10.10;99.90
35563;DHT22;21665;40.108;18.302;2023-04-15T00:07:13;10.10;99.90
35563;DHT22;21665;40.108;18.302;2023-04-15T00:09:43;10.10;99.90
35563;DHT22;21665;40.108;18.302;2023-04-15T00:12:10;10.20;99.90
35563;DHT22;21665;40.108;18.302;2023-04-15T00:14:38;10.30;99.90
35563;DHT22;21665;40.108;18.302;2023-04-15T00:17:07;10.30;99.90
35563;DHT22;21665;40.108;18.302;2023-04-15T00:19:34;10.40;99.90
35563;DHT22;21665;40.108;18.302;2023-04-15T00:22:00;10.40;99.90
35563;DHT22;21665;40.108;18.302;2023-04-15T00:24:26;10.40;99.90
35563;DHT22;21665;40.108;18.302;2023-04-15T00:26:53;10.40;99.90
35563;DHT22;21665;40.108;18.302;2023-04-15T00:29:20;10.40;99.90
35563;DHT22;21665;40.108;18.302;2023-04-15T00:31:47;10.30;99.90
35563;DHT22;21665;40.108;18.302;2023-04-15T00:34:13;10.30;99.90
35563;DHT22;21665;40.108;18.302;2023-04-15T00:36:43;10.40;99.90
35563;DHT22;21665;40.108;18.302;2023-04-15T00:39:09;10.40;99.90
35563;DHT22;21665;40.108;18.302;2023-04-15T00:41:36;10.40;99.90
35563;DHT22;21665;40.108;18.302;2023-04-15T00:44:08;10.40;99.90
35563;DHT22;21665;40.108;18.302;2023-04-15T00:46:36;10.40;99.90
35563;DHT22;21665;40.108;18.302;2023-04-15T00:49:04;10.40;99.90
35563;DHT22;21665;40.108;18.302;2023-04-15T00:51:35;10.50;99.90
35563;DHT22;21665;40.108;18.302;2023-04-15T00:54:03;10.50;99.90
35563;DHT22;21665;40.108;18.302;2023-04-15T00:56:29;10.50;99.90
35563;DHT22;21665;40.108;18.302;2023-04-15T00:58:57;10.40;99.90
35563;DHT22;21665;40.108;18.302;2023-04-15T01:01:25;10.50;99.90
35563;DHT22;21665;40.108;18.302;2023-04-15T01:03:52;10.40;99.90
35563;DHT22;21665;40.108;18.302;2023-04-15T01:06:19;10.40;99.90
35563;DHT22;21665;40.108;18.302;2023-04-15T01:08:46;10.30;99.90
35563;DHT22;21665;40.108;18.302;2023-04-15T01:11:13;10.30;99.90
35563;DHT22;21665;40.108;18.302;2023-04-15T01:13:40;10.30;99.90
35563;DHT22;21665;40.108;18.302;2023-04-15T01:16:08;10.10;99.90
35563;DHT22;21665;40.108;18.302;2023-04-15T01:18:36;10.10;99.90
35563;DHT22;21665;40.108;18.302;2023-04-15T01:21:06;10.00;99.90
35563;DHT22;21665;40.108;18.302;2023-04-15T01:23:35;9.90;99.90
35563;DHT22;21665;40.108;18.302;2023-04-15T01:26:08;9.90;99.90
35563;DHT22;21665;40.108;18.302;2023-04-15T01:28:35;10.00;99.90
35563;DHT22;21665;40.108;18.302;2023-04-15T01:31:11;10.00;99.90
35563;DHT22;21665;40.108;18.302;2023-04-15T01:33:39;10.00;99.90
35563;DHT22;21665;40.108;18.302;2023-04-15T01:36:08;10.10;99.90
35563;DHT22;21665;40.108;18.302;2023-04-15T01:38:36;10.10;99.90
35563;DHT22;21665;40.108;18.302;2023-04-15T01:41:03;10.10;99.90
35563;DHT22;21665;40.108;18.302;2023-04-15T01:43:33;10.20;99.90
35563;DHT22;21665;40.108;18.302;2023-04-15T01:45:59;10.30;99.90
35563;DHT22;21665;40.108;18.302;2023-04-15T01:48:26;10.30;99.90
35563;DHT22;21665;40.108;18.302;2023-04-15T01:50:54;10.40;99.90
35563;DHT22;21665;40.108;18.302;2023-04-15T01:53:22;10.50;99.90
35563;DHT22;21665;40.108;18.302;2023-04-15T01:55:49;10.50;99.90
35563;DHT22;21665;40.108;18.302;2023-04-15T01:58:18;10.50;99.90
35563;DHT22;21665;40.108;18.302;2023-04-15T02:00:44;10.40;99.90
35563;DHT22;21665;40.108;18.302;2023-04-15T02:03:11;10.40;99.90
35563;DHT22;21665;40.108;18.302;2023-04-15T02:05:37;10.30;99.90
35563;DHT22;21665;40.108;18.302;2023-04-15T02:08:04;10.30;99.90
35563;DHT22;21665;40.108;18.302;2023-04-15T02:10:31;10.20;99.90
35563;DHT22;21665;40.108;18.302;2023-04-15T02:12:57;10.20;99.90
35563;DHT22;21665;40.108;18.302;2023-04-15T02:15:27;10.10;99.90
35563;DHT22;21665;40.108;18.302;2023-04-15T02:17:53;10.10;99.90
35563;DHT22;21665;40.108;18.302;2023-04-15T02:20:20;10.10;99.90
35563;DHT22;21665;40.108;18.302;2023-04-15T02:22:47;10.00;99.90
35563;DHT22;21665;40.108;18.302;2023-04-15T02:25:14;10.00;99.90
35563;DHT22;21665;40.108;18.302;2023-04-15T02:27:44;10.00;99.90
35563;DHT22;21665;40.108;18.302;2023-04-15T02:30:11;9.90;99.90
35563;DHT22;21665;40.108;18.302;2023-04-15T02:32:37;9.90;99.90
35563;DHT22;21665;40.108;18.302;2023-04-15T02:35:06;9.90;99.90
35563;DHT22;21665;40.108;18.302;2023-04-15T02:37:34;9.90;99.90
35563;DHT22;21665;40.108;18.302;2023-04-15T02:40:09;9.80;99.90
35563;DHT22;21665;40.108;18.302;2023-04-15T02:42:39;9.80;99.90
35563;DHT22;21665;40.108;18.302;2023-04-15T02:45:10;9.70;99.90
35563;DHT22;21665;40.108;18.302;2023-04-15T02:47:41;9.70;99.90
35563;DHT22;21665;40.108;18.302;2023-04-15T02:50:11;9.60;99.90
35563;DHT22;21665;40.108;18.302;2023-04-15T02:52:40;9.60;99.90
35563;DHT22;21665;40.108;18.302;2023-04-15T02:55:10;9.60;99.90
35563;DHT22;21665;40.108;18.302;2023-04-15T02:57:37;9.70;99.90
35563;DHT22;21665;40.108;18.302;2023-04-15T03:00:07;9.70;99.90
35563;DHT22;21665;40.108;18.302;2023-04-15T03:02:39;9.80;99.90
35563;DHT22;21665;40.108;18.302;2023-04-15T03:05:11;9.90;99.90
35563;DHT22;21665;40.108;18.302;2023-04-15T03:07:43;9.90;99.90
35563;DHT22;21665;40.108;18.302;2023-04-15T03:10:10;10.00;99.90
35563;DHT22;21665;40.108;18.302;2023-04-15T03:12:37;10.20;99.90
35563;DHT22;21665;40.108;18.302;2023-04-15T03:15:03;10.30;99.90
35563;DHT22;21665;40.108;18.302;2023-04-15T03:17:37;10.40;99.90
35563;DHT22;21665;40.108;18.302;2023-04-15T03:20:05;10.40;99.90
35563;DHT22;21665;40.108;18.302;2023-04-15T03:22:32;10.30;99.90
35563;DHT22;21665;40.108;18.302;2023-04-15T03:24:59;10.10;99.90
35563;DHT22;21665;40.108;18.302;2023-04-15T03:27:25;9.90;99.90
35563;DHT22;21665;40.108;18.302;2023-04-15T03:29:54;9.70;99.90
35563;DHT22;21665;40.108;18.302;2023-04-15T03:32:24;9.70;99.90
35563;DHT22;21665;40.108;18.302;2023-04-15T03:34:53;9.60;99.90
35563;DHT22;21665;40.108;18.302;2023-04-15T03:37:19;9.50;99.90
35563;DHT22;21665;40.108;18.302;2023-04-15T03:39:46;9.50;99.90
35563;DHT22;21665;40.108;18.302;2023-04-15T03:42:12;9.50;99.90
35563;DHT22;21665;40.108;18.302;2023-04-15T03:44:38;9.40;99.90
35563;DHT22;21665;40.108;18.302;2023-04-15T03:47:05;9.40;99.90
35563;DHT22;21665;40.108;18.302;2023-04-15T03:49:31;9.40;99.90
35563;DHT22;21665;40.108;18.302;2023-04-15T03:51:58;9.40;99.90
35563;DHT22;21665;40.108;18.302;2023-04-15T03:54:25;9.50;99.90
35563;DHT22;21665;40.108;18.302;2023-04-15T03:56:51;9.50;99.90
35563;DHT22;21665;40.108;18.302;2023-04-15T03:59:17;9.50;99.90
35563;DHT22;21665;40.108;18.302;2023-04-15T04:01:44;9.50;99.90
35563;DHT22;21665;40.108;18.302;2023-04-15T04:04:10;9.40;99.90
35563;DHT22;21665;40.108;18.302;2023-04-15T04:06:37;9.30;99.90
35563;DHT22;21665;40.108;18.302;2023-04-15T04:09:03;9.20;99.90
35563;DHT22;21665;40.108;18.302;2023-04-15T04:11:30;9.10;99.90
35563;DHT22;21665;40.108;18.302;2023-04-15T04:13:56;9.00;99.90
35563;DHT22;21665;40.108;18.302;2023-04-15T04:16:23;8.90;99.90
35563;DHT22;21665;40.108;18.302;2023-04-15T04:18:49;8.80;99.90
35563;DHT22;21665;40.108;18.302;2023-04-15T04:21:16;8.80;99.90
35563;DHT22;21665;40.108;18.302;2023-04-15T04:23:43;8.80;99.90
35563;DHT22;21665;40.108;18.302;2023-04-15T04:26:09;8.70;99.90
35563;DHT22;21665;40.108;18.302;2023-04-15T04:28:36;8.80;99.90
35563;DHT22;21665;40.108;18.302;2023-04-15T04:31:07;8.80;99.90
35563;DHT22;21665;40.108;18.302;2023-04-15T04:33:34;8.90;99.90
35563;DHT22;21665;40.108;18.302;2023-04-15T04:36:00;8.90;99.90
35563;DHT22;21665;40.108;18.302;2023-04-15T04:38:26;9.00;99.90
35563;DHT22;21665;40.108;18.302;2023-04-15T04:40:53;9.00;99.90
35563;DHT22;21665;40.108;18.302;2023-04-15T04:43:19;9.10;99.90
35563;DHT22;21665;40.108;18.302;2023-04-15T04:45:45;9.20;99.90
35563;DHT22;21665;40.108;18.302;2023-04-15T04:48:12;9.40;99.90
35563;DHT22;21665;40.108;18.302;2023-04-15T04:50:38;9.50;99.90
35563;DHT22;21665;40.108;18.302;2023-04-15T04:53:05;9.70;99.90
35563;DHT22;21665;40.108;18.302;2023-04-15T04:55:31;9.80;99.90
35563;DHT22;21665;40.108;18.302;2023-04-15T04:57:58;9.90;99.90
35563;DHT22;21665;40.108;18.302;2023-04-15T05:00:24;10.00;99.90
35563;DHT22;21665;40.108;18.302;2023-04-15T05:02:50;10.20;99.90
35563;DHT22;21665;40.108;18.302;2023-04-15T05:05:17;10.60;99.90
35563;DHT22;21665;40.108;18.302;2023-04-15T05:07:43;11.20;99.90
35563;DHT22;21665;40.108;18.302;2023-04-15T05:10:10;11.90;99.90
35563;DHT22;21665;40.108;18.302;2023-04-15T05:12:37;12.40;99.90
35563;DHT22;21665;40.108;18.302;2023-04-15T05:15:05;12.70;99.90
35563;DHT22;21665;40.108;18.302;2023-04-15T05:17:31;12.90;99.90
35563;DHT22;21665;40.108;18.302;2023-04-15T05:20:01;13.10;99.90
35563;DHT22;21665;40.108;18.302;2023-04-15T05:22:28;13.30;99.90
35563;DHT22;21665;40.108;18.302;2023-04-15T05:24:54;13.30;99.90
35563;DHT22;21665;40.108;18.302;2023-04-15T05:27:21;13.30;99.90
35563;DHT22;21665;40.108;18.302;2023-04-15T05:29:49;13.40;99.90
35563;DHT22;21665;40.108;18.302;2023-04-15T05:32:15;13.80;99.90
35563;DHT22;21665;40.108;18.302;2023-04-15T05:34:42;14.50;99.90
35563;DHT22;21665;40.108;18.302;2023-04-15T05:37:09;15.50;99.90
35563;DHT22;21665;40.108;18.302;2023-04-15T05:39:35;16.10;99.90
35563;DHT22;21665;40.108;18.302;2023-04-15T05:42:01;16.20;99.90
35563;DHT22;21665;40.108;18.302;2023-04-15T05:44:28;15.80;99.90
35563;DHT22;21665;40.108;18.302;2023-04-15T05:46:55;15.40;99.90
35563;DHT22;21665;40.108;18.302;2023-04-15T05:49:21;15.40;99.90
35563;DHT22;21665;40.108;18.302;2023-04-15T05:51:48;15.60;99.90
35563;DHT22;21665;40.108;18.302;2023-04-15T05:54:15;15.80;99.90
35563;DHT22;21665;40.108;18.302;2023-04-15T05:56:42;16.10;99.90
35563;DHT22;21665;40.108;18.302;2023-04-15T05:59:09;16.30;99.90
35563;DHT22;21665;40.108;18.302;2023-04-15T06:01:36;16.40;99.90
35563;DHT22;21665;40.108;18.302;2023-04-15T06:04:03;16.30;99.90
35563;DHT22;21665;40.108;18.302;2023-04-15T06:06:29;16.40;99.90
35563;DHT22;21665;40.108;18.302;2023-04-15T06:08:57;16.60;99.90
35563;DHT22;21665;40.108;18.302;2023-04-15T06:11:24;16.70;99.90
35563;DHT22;21665;40.108;18.302;2023-04-15T06:13:51;17.30;99.90
35563;DHT22;21665;40.108;18.302;2023-04-15T06:16:18;17.70;99.90
35563;DHT22;21665;40.108;18.302;2023-04-15T06:18:45;18.20;99.90
35563;DHT22;21665;40.108;18.302;2023-04-15T06:21:11;19.00;99.90
35563;DHT22;21665;40.108;18.302;2023-04-15T06:23:37;19.50;99.90
35563;DHT22;21665;40.108;18.302;2023-04-15T06:26:07;19.90;99.90
35563;DHT22;21665;40.108;18.302;2023-04-15T08:52:45;21.60;99.90
35563;DHT22;21665;40.108;18.302;2023-04-15T08:55:12;21.40;99.90
35563;DHT22;21665;40.108;18.302;2023-04-15T08:57:40;21.80;99.90
35563;DHT22;21665;40.108;18.302;2023-04-15T09:00:07;22.00;99.90
35563;DHT22;21665;40.108;18.302;2023-04-15T09:02:35;22.00;99.90
35563;DHT22;21665;40.108;18.302;2023-04-15T09:05:02;22.00;99.90
35563;DHT22;21665;40.108;18.302;2023-04-15T09:07:33;22.00;99.90
35563;DHT22;21665;40.108;18.302;2023-04-15T09:10:03;21.60;99.90
35563;DHT22;21665;40.108;18.302;2023-04-15T09:12:34;21.60;99.90
35563;DHT22;21665;40.108;18.302;2023-04-15T09:15:02;21.60;99.90
35563;DHT22;21665;40.108;18.302;2023-04-15T09:17:29;21.20;99.90
35563;DHT22;21665;40.108;18.302;2023-04-15T09:20:12;21.20;99.90
35563;DHT22;21665;40.108;18.302;2023-04-15T09:22:39;21.40;99.90
35563;DHT22;21665;40.108;18.302;2023-04-15T09:27:49;21.00;99.90
35563;DHT22;21665;40.108;18.302;2023-04-15T09:30:17;21.30;99.90
35563;DHT22;21665;40.108;18.302;2023-04-15T09:32:54;21.50;99.90
35563;DHT22;21665;40.108;18.302;2023-04-15T09:35:23;21.40;99.90
35563;DHT22;21665;40.108;18.302;2023-04-15T09:37:50;21.00;99.90
35563;DHT22;21665;40.108;18.302;2023-04-15T09:40:37;21.10;99.90
35563;DHT22;21665;40.108;18.302;2023-04-15T09:43:05;21.00;99.90
35563;DHT22;21665;40.108;18.302;2023-04-15T09:45:34;20.00;99.90
35563;DHT22;21665;40.108;18.302;2023-04-15T09:48:23;19.90;99.90
35563;DHT22;21665;40.108;18.302;2023-04-15T09:50:57;20.00;99.90
35563;DHT22;21665;40.108;18.302;2023-04-15T09:53:33;19.70;99.90
35563;DHT22;21665;40.108;18.302;2023-04-15T09:56:01;19.60;99.90
35563;DHT22;21665;40.108;18.302;2023-04-15T09:58:32;18.90;99.90
35563;DHT22;21665;40.108;18.302;2023-04-15T10:01:04;18.90;99.90
35563;DHT22;21665;40.108;18.302;2023-04-15T10:03:34;19.20;99.90
35563;DHT22;21665;40.108;18.302;2023-04-15T10:06:04;19.40;99.90
35563;DHT22;21665;40.108;18.302;2023-04-15T10:08:33;19.80;99.90
35563;DHT22;21665;40.108;18.302;2023-04-15T10:11:01;20.20;99.90
35563;DHT22;21665;40.108;18.302;2023-04-15T10:13:31;19.80;99.90
35563;DHT22;21665;40.108;18.302;2023-04-15T10:16:18;19.30;99.90
35563;DHT22;21665;40.108;18.302;2023-04-15T10:18:47;18.90;99.90
35563;DHT22;21665;40.108;18.302;2023-04-15T10:21:18;19.10;99.90
35563;DHT22;21665;40.108;18.302;2023-04-15T10:23:50;18.70;99.90
35563;DHT22;21665;40.108;18.302;2023-04-15T10:26:17;18.30;99.90
35563;DHT22;21665;40.108;18.302;2023-04-15T10:28:44;18.50;99.90
35563;DHT22;21665;40.108;18.302;2023-04-15T10:31:12;18.30;99.90
35563;DHT22;21665;40.108;18.302;2023-04-15T10:33:43;18.10;99.90
35563;DHT22;21665;40.108;18.302;2023-04-15T10:36:11;17.60;99.90
35563;DHT22;21665;40.108;18.302;2023-04-15T10:38:44;17.60;99.90
35563;DHT22;21665;40.108;18.302;2023-04-15T10:41:15;18.00;99.90
35563;DHT22;21665;40.108;18.302;2023-04-15T10:43:51;18.30;99.90
35563;DHT22;21665;40.108;18.302;2023-04-15T10:48:50;18.50;99.90
35563;DHT22;21665;40.108;18.302;2023-04-15T10:51:29;18.40;99.90
35563;DHT22;21665;40.108;18.302;2023-04-15T10:54:00;18.50;99.90
35563;DHT22;21665;40.108;18.302;2023-04-15T10:56:29;19.00;99.90
35563;DHT22;21665;40.108;18.302;2023-04-15T10:58:58;19.50;99.90
35563;DHT22;21665;40.108;18.302;2023-04-15T11:01:52;19.70;99.90
35563;DHT22;21665;40.108;18.302;2023-04-15T11:07:47;20.30;99.90
35563;DHT22;21665;40.108;18.302;2023-04-15T11:12:49;20.40;99.90
35563;DHT22;21665;40.108;18.302;2023-04-15T11:15:38;20.40;99.90
35563;DHT22;21665;40.108;18.302;2023-04-15T11:18:18;20.30;99.90
35563;DHT22;21665;40.108;18.302;2023-04-15T11:20:51;20.80;99.90
35563;DHT22;21665;40.108;18.302;2023-04-15T11:23:18;20.80;99.90
35563;DHT22;21665;40.108;18.302;2023-04-15T11:25:45;21.10;99.90
35563;DHT22;21665;40.108;18.302;2023-04-15T11:28:12;21.40;99.90
35563;DHT22;21665;40.108;18.302;2023-04-15T11:30:39;21.30;99.90
35563;DHT22;21665;40.108;18.302;2023-04-15T11:33:09;20.70;99.90
35563;DHT22;21665;40.108;18.302;2023-04-15T11:35:38;20.40;99.90
35563;DHT22;21665;40.108;18.302;2023-04-15T11:38:13;20.40;99.90
35563;DHT22;21665;40.108;18.302;2023-04-15T11:40:41;20.50;99.90
35563;DHT22;21665;40.108;18.302;2023-04-15T11:43:16;20.30;99.90
35563;DHT22;21665;40.108;18.302;2023-04-15T11:45:54;20.10;99.90
35563;DHT22;21665;40.108;18.302;2023-04-15T11:48:23;19.30;99.90
35563;DHT22;21665;40.108;18.302;2023-04-15T11:51:04;19.10;99.90
35563;DHT22;21665;40.108;18.302;2023-04-15T11:56:10;17.90;99.90
35563;DHT22;21665;40.108;18.302;2023-04-15T11:58:38;18.20;99.90
35563;DHT22;21665;40.108;18.302;2023-04-15T12:01:06;18.70;99.90
35563;DHT22;21665;40.108;18.302;2023-04-15T12:03:43;19.00;99.90
35563;DHT22;21665;40.108;18.302;2023-04-15T12:09:03;19.50;99.90
35563;DHT22;21665;40.108;18.302;2023-04-15T12:14:20;19.10;99.90
35563;DHT22;21665;40.108;18.302;2023-04-15T12:16:49;19.20;99.90
35563;DHT22;21665;40.108;18.302;2023-04-15T12:19:30;19.50;99.90
35563;DHT22;21665;40.108;18.302;2023-04-15T12:22:05;19.80;99.90
35563;DHT22;21665;40.108;18.302;2023-04-15T12:24:33;19.90;99.90
35563;DHT22;21665;40.108;18.302;2023-04-15T12:27:06;19.70;99.90
35563;DHT22;21665;40.108;18.302;2023-04-15T12:29:34;19.60;99.90
35563;DHT22;21665;40.108;18.302;2023-04-15T12:32:15;19.80;99.90
35563;DHT22;21665;40.108;18.302;2023-04-15T12:34:50;19.70;99.90
35563;DHT22;21665;40.108;18.302;2023-04-15T12:37:18;19.60;99.90
35563;DHT22;21665;40.108;18.302;2023-04-15T12:39:46;19.80;99.90
35563;DHT22;21665;40.108;18.302;2023-04-15T12:42:15;19.90;99.90
35563;DHT22;21665;40.108;18.302;2023-04-15T12:44:41;20.10;99.90
35563;DHT22;21665;40.108;18.302;2023-04-15T12:47:10;20.00;99.90
35563;DHT22;21665;40.108;18.302;2023-04-15T12:49:37;20.10;99.90
35563;DHT22;21665;40.108;18.302;2023-04-15T12:52:04;20.00;99.90
35563;DHT22;21665;40.108;18.302;2023-04-15T12:54:31;20.10;99.90
35563;DHT22;21665;40.108;18.302;2023-04-15T12:56:58;20.10;99.90
35563;DHT22;21665;40.108;18.302;2023-04-15T12:59:26;19.90;99.90
35563;DHT22;21665;40.108;18.302;2023-04-15T13:01:54;19.50;99.90
35563;DHT22;21665;40.108;18.302;2023-04-15T13:04:21;19.50;99.90
35563;DHT22;21665;40.108;18.302;2023-04-15T13:06:48;19.40;99.90
35563;DHT22;21665;40.108;18.302;2023-04-15T13:09:14;19.30;99.90
35563;DHT22;21665;40.108;18.302;2023-04-15T13:11:41;18.90;99.90
35563;DHT22;21665;40.108;18.302;2023-04-15T13:14:09;18.60;99.90
35563;DHT22;21665;40.108;18.302;2023-04-15T13:16:39;18.50;99.90
35563;DHT22;21665;40.108;18.302;2023-04-15T13:19:05;18.30;99.90
35563;DHT22;21665;40.108;18.302;2023-04-15T13:21:32;18.50;99.90
35563;DHT22;21665;40.108;18.302;2023-04-15T13:24:00;18.60;99.90
35563;DHT22;21665;40.108;18.302;2023-04-15T13:26:27;19.00;99.90
35563;DHT22;21665;40.108;18.302;2023-04-15T13:28:54;19.00;99.90
35563;DHT22;21665;40.108;18.302;2023-04-15T13:31:21;19.40;99.90
35563;DHT22;21665;40.108;18.302;2023-04-15T13:33:47;19.20;99.90
35563;DHT22;21665;40.108;18.302;2023-04-15T13:36:14;19.00;99.90
35563;DHT22;21665;40.108;18.302;2023-04-15T13:38:43;19.40;99.90
35563;DHT22;21665;40.108;18.302;2023-04-15T13:41:12;19.70;99.90
35563;DHT22;21665;40.108;18.302;2023-04-15T13:43:39;20.00;99.90
35563;DHT22;21665;40.108;18.302;2023-04-15T13:46:11;19.90;99.90
35563;DHT22;21665;40.108;18.302;2023-04-15T13:48:40;19.70;99.90
35563;DHT22;21665;40.108;18.302;2023-04-15T13:51:07;19.70;99.90
35563;DHT22;21665;40.108;18.302;2023-04-15T13:53:34;19.80;99.90
35563;DHT22;21665;40.108;18.302;2023-04-15T13:56:01;19.90;99.90
35563;DHT22;21665;40.108;18.302;2023-04-15T13:58:30;20.00;99.90
35563;DHT22;21665;40.108;18.302;2023-04-15T14:00:57;20.10;99.90
35563;DHT22;21665;40.108;18.302;2023-04-15T14:03:23;19.90;99.90
35563;DHT22;21665;40.108;18.302;2023-04-15T14:05:50;19.80;99.90
35563;DHT22;21665;40.108;18.302;2023-04-15T14:08:22;19.60;99.90
35563;DHT22;21665;40.108;18.302;2023-04-15T14:10:49;19.80;99.90
35563;DHT22;21665;40.108;18.302;2023-04-15T14:13:16;19.90;99.90
35563;DHT22;21665;40.108;18.302;2023-04-15T14:15:44;19.70;99.90
35563;DHT22;21665;40.108;18.302;2023-04-15T14:18:12;19.60;99.90
35563;DHT22;21665;40.108;18.302;2023-04-15T14:20:38;19.50;99.90
35563;DHT22;21665;40.108;18.302;2023-04-15T14:23:05;19.30;99.90
35563;DHT22;21665;40.108;18.302;2023-04-15T14:25:31;19.30;99.90
35563;DHT22;21665;40.108;18.302;2023-04-15T14:27:58;19.40;99.90
35563;DHT22;21665;40.108;18.302;2023-04-15T14:30:24;19.00;99.90
35563;DHT22;21665;40.108;18.302;2023-04-15T14:32:51;19.00;99.90
35563;DHT22;21665;40.108;18.302;2023-04-15T14:35:17;18.80;99.90
35563;DHT22;21665;40.108;18.302;2023-04-15T14:37:44;18.90;99.90
35563;DHT22;21665;40.108;18.302;2023-04-15T14:40:11;18.60;99.90
35563;DHT22;21665;40.108;18.302;2023-04-15T14:42:38;18.70;99.90
35563;DHT22;21665;40.108;18.302;2023-04-15T14:45:05;18.70;99.90
35563;DHT22;21665;40.108;18.302;2023-04-15T14:47:31;18.20;99.90
35563;DHT22;21665;40.108;18.302;2023-04-15T14:50:01;18.00;99.90
35563;DHT22;21665;40.108;18.302;2023-04-15T14:52:30;18.00;99.90
35563;DHT22;21665;40.108;18.302;2023-04-15T14:55:11;18.10;99.90
35563;DHT22;21665;40.108;18.302;2023-04-15T14:57:38;18.00;99.90
35563;DHT22;21665;40.108;18.302;2023-04-15T15:00:06;18.10;99.90
35563;DHT22;21665;40.108;18.302;2023-04-15T15:02:55;18.00;99.90
35563;DHT22;21665;40.108;18.302;2023-04-15T15:06:51;17.90;99.90
35563;DHT22;21665;40.108;18.302;2023-04-15T15:13:21;18.00;99.90
35563;DHT22;21665;40.108;18.302;2023-04-15T15:15:47;18.20;99.90
35563;DHT22;21665;40.108;18.302;2023-04-15T15:18:22;18.00;99.90
35563;DHT22;21665;40.108;18.302;2023-04-15T15:21:01;18.00;99.90
35563;DHT22;21665;40.108;18.302;2023-04-15T15:23:27;18.00;99.90
35563;DHT22;21665;40.108;18.302;2023-04-15T15:25:57;17.80;99.90
35563;DHT22;21665;40.108;18.302;2023-04-15T15:29:04;17.50;99.90
35563;DHT22;21665;40.108;18.302;2023-04-15T15:31:31;17.20;99.90
35563;DHT22;21665;40.108;18.302;2023-04-15T16:40:30;15.90;99.90
35563;DHT22;21665;40.108;18.302;2023-04-15T16:42:57;15.80;99.90
35563;DHT22;21665;40.108;18.302;2023-04-15T16:45:24;15.80;99.90
35563;DHT22;21665;40.108;18.302;2023-04-15T16:47:51;15.60;99.90
35563;DHT22;21665;40.108;18.302;2023-04-15T16:50:17;15.60;99.90
35563;DHT22;21665;40.108;18.302;2023-04-15T16:52:46;15.60;99.90
35563;DHT22;21665;40.108;18.302;2023-04-15T16:55:13;15.50;99.90
35563;DHT22;21665;40.108;18.302;2023-04-15T16:57:39;15.40;99.90
35563;DHT22;21665;40.108;18.302;2023-04-15T17:00:06;15.50;99.90
35563;DHT22;21665;40.108;18.302;2023-04-15T17:02:32;15.40;99.90
35563;DHT22;21665;40.108;18.302;2023-04-15T17:05:00;15.30;99.90
35563;DHT22;21665;40.108;18.302;2023-04-15T17:07:26;15.30;99.90
35563;DHT22;21665;40.108;18.302;2023-04-15T17:09:53;15.30;99.90
35563;DHT22;21665;40.108;18.302;2023-04-15T17:12:20;15.20;99.90
35563;DHT22;21665;40.108;18.302;2023-04-15T17:14:46;15.10;99.90
35563;DHT22;21665;40.108;18.302;2023-04-15T17:17:13;15.10;99.90
35563;DHT22;21665;40.108;18.302;2023-04-15T17:19:44;15.10;99.90
35563;DHT22;21665;40.108;18.302;2023-04-15T17:22:10;15.00;99.90
35563;DHT22;21665;40.108;18.302;2023-04-15T17:24:37;15.00;99.90
35563;DHT22;21665;40.108;18.302;2023-04-15T17:27:06;15.00;99.90
35563;DHT22;21665;40.108;18.302;2023-04-15T17:29:32;15.00;99.90
35563;DHT22;21665;40.108;18.302;2023-04-15T17:31:59;15.00;99.90
35563;DHT22;21665;40.108;18.302;2023-04-15T17:34:27;14.90;99.90
35563;DHT22;21665;40.108;18.302;2023-04-15T17:36:57;14.90;99.90
35563;DHT22;21665;40.108;18.302;2023-04-15T17:39:26;14.90;99.90
35563;DHT22;21665;40.108;18.302;2023-04-15T17:41:52;14.80;99.90
35563;DHT22;21665;40.108;18.302;2023-04-15T17:44:18;14.70;99.90
35563;DHT22;21665;40.108;18.302;2023-04-15T17:46:46;14.70;99.90
35563;DHT22;21665;40.108;18.302;2023-04-15T17:49:12;14.70;99.90
35563;DHT22;21665;40.108;18.302;2023-04-15T17:51:38;14.70;99.90
35563;DHT22;21665;40.108;18.302;2023-04-15T17:54:07;14.70;99.90
35563;DHT22;21665;40.108;18.302;2023-04-15T17:56:34;14.60;99.90
35563;DHT22;21665;40.108;18.302;2023-04-15T17:59:06;14.70;99.90
35563;DHT22;21665;40.108;18.302;2023-04-15T18:01:34;14.60;99.90
35563;DHT22;21665;40.108;18.302;2023-04-15T18:04:00;14.60;99.90
35563;DHT22;21665;40.108;18.302;2023-04-15T18:06:27;14.60;99.90
35563;DHT22;21665;40.108;18.302;2023-04-15T18:08:53;14.70;99.90
35563;DHT22;21665;40.108;18.302;2023-04-15T18:11:20;14.60;99.90
35563;DHT22;21665;40.108;18.302;2023-04-15T18:13:46;14.60;99.90
35563;DHT22;21665;40.108;18.302;2023-04-15T18:16:13;14.60;99.90
35563;DHT22;21665;40.108;18.302;2023-04-15T18:18:39;14.60;99.90
35563;DHT22;21665;40.108;18.302;2023-04-15T18:21:06;14.60;99.90
35563;DHT22;21665;40.108;18.302;2023-04-15T18:23:32;14.60;99.90
35563;DHT22;21665;40.108;18.302;2023-04-15T18:25:59;14.60;99.90
35563;DHT22;21665;40.108;18.302;2023-04-15T18:28:25;14.70;99.90
35563;DHT22;21665;40.108;18.302;2023-04-15T18:30:52;14.70;99.90
35563;DHT22;21665;40.108;18.302;2023-04-15T18:33:19;14.70;99.90
35563;DHT22;21665;40.108;18.302;2023-04-15T18:35:46;14.70;99.90
35563;DHT22;21665;40.108;18.302;2023-04-15T18:38:15;14.70;99.90
35563;DHT22;21665;40.108;18.302;2023-04-15T18:40:42;14.70;99.90
35563;DHT22;21665;40.108;18.302;2023-04-15T18:43:08;14.60;99.90
35563;DHT22;21665;40.108;18.302;2023-04-15T18:45:35;14.60;99.90
35563;DHT22;21665;40.108;18.302;2023-04-15T18:48:02;14.60;99.90
35563;DHT22;21665;40.108;18.302;2023-04-15T18:50:29;14.50;99.90
35563;DHT22;21665;40.108;18.302;2023-04-15T18:52:56;14.50;99.90
35563;DHT22;21665;40.108;18.302;2023-04-15T18:55:23;14.40;99.90
35563;DHT22;21665;40.108;18.302;2023-04-15T18:57:50;14.30;99.90
35563;DHT22;21665;40.108;18.302;2023-04-15T19:00:16;14.30;99.90
35563;DHT22;21665;40.108;18.302;2023-04-15T19:02:43;14.30;99.90
35563;DHT22;21665;40.108;18.302;2023-04-15T19:05:10;14.30;99.90
35563;DHT22;21665;40.108;18.302;2023-04-15T19:07:37;14.20;99.90
35563;DHT22;21665;40.108;18.302;2023-04-15T19:10:04;14.10;99.90
35563;DHT22;21665;40.108;18.302;2023-04-15T19:12:31;14.10;99.90
35563;DHT22;21665;40.108;18.302;2023-04-15T19:14:58;14.00;99.90
35563;DHT22;21665;40.108;18.302;2023-04-15T19:17:38;14.00;99.90
35563;DHT22;21665;40.108;18.302;2023-04-15T19:20:05;14.00;99.90
35563;DHT22;21665;40.108;18.302;2023-04-15T19:22:55;14.00;99.90